Disclaimer

Please do not use the information listed here in-flight or in-navigation, as they are not provided to us by the airports but are provided by volunteers, so they might be outdated.

Search


Regions


Airport information page

Radio informations:
Tower (TWR) - 120.35 MHz

Airport informations:
Latitude: 58° 35' 10.51" N
Longitude: 016° 15' 02.24" E
Elevation: 32 feet - 10 meters
Operating hours: Remarks
Operating agency: Civil government, landing fees and diplomatic clearance may be required
Timezone: UTC+1(+2DT) - Last Sunday in March to last Sunday in October
Fuel: Jet A1, without icing nhibitor.

108/135 octane gasoline, leaded, No MIL Spec.

100/130 MIL Spec, low lead, aviation gasoline (BLUE)

Runway information:
09/27 - 7228 x 148 feet< - >2203 x 45 meters
11/29 - 1948 x 115 feet< - >594 x 35 meters

Recent METARs:
ESSP 151220Z AUTO 05003KT 9999 OVC027/// M01/M02 Q1035
ESSP 151250Z AUTO 03003KT 9999 OVC024/// M01/M02 Q1035
ESSP 151320Z AUTO 03004KT 9999 OVC026/// M01/M02 Q1035

Airport on the map: